Time;durP1;ratioP1;P1;durP2;ratioP2;P2;SDS_P1;SDS_P2;PMS_P1;PMS_P2;Temp;Humidity;BMP_temperature;BMP_pressure;BME280_temperature;BME280_humidity;BME280_pressure;Samples;Min_cycle;Max_cycle;Signal;HPM_P1;HPM_P2
2022/09/27 00:01:05;;;;;;;;;;;10.60;99.90;;;;;;5027258;28;19928;-62
2022/09/27 00:03:31;;;;;;;;;;;10.60;99.90;;;;;;5026713;28;19985;-63
2022/09/27 00:06:01;;;;;;;;;;;10.60;99.90;;;;;;5022830;28;19933;-63
2022/09/27 00:08:26;;;;;;;;;;;10.50;99.90;;;;;;5025166;28;20274;-63
2022/09/27 00:11:02;;;;;;;;;;;10.50;99.90;;;;;;5026988;28;19925;-64
2022/09/27 00:13:28;;;;;;;;;;;10.50;99.90;;;;;;5028272;28;20405;-64
2022/09/27 00:15:57;;;;;;;;;;;10.50;99.90;;;;;;5032672;28;19946;-64
2022/09/27 00:18:23;;;;;;;;;;;10.50;99.90;;;;;;5030770;28;19974;-63
2022/09/27 00:20:48;;;;;;;;;;;10.50;99.90;;;;;;5029226;28;19928;-63
2022/09/27 00:23:14;;;;;;;;;;;10.50;99.90;;;;;;5029478;28;19925;-63
2022/09/27 00:25:39;;;;;;;;;;;10.50;99.90;;;;;;5030831;28;19921;-63
2022/09/27 00:28:05;;;;;;;;;;;10.50;99.90;;;;;;5030472;28;20378;-65
2022/09/27 00:30:31;;;;;;;;;;;10.50;99.90;;;;;;5029958;28;19932;-63
2022/09/27 00:32:56;;;;;;;;;;;10.50;99.90;;;;;;5029418;28;19925;-63
2022/09/27 00:35:22;;;;;;;;;;;10.50;99.90;;;;;;5045644;28;19925;-62
2022/09/27 00:37:47;;;;;;;;;;;10.50;99.90;;;;;;5036929;28;20173;-64
2022/09/27 00:40:14;;;;;;;;;;;10.60;99.90;;;;;;5030510;28;19967;-62
2022/09/27 00:42:39;;;;;;;;;;;10.50;99.90;;;;;;5045245;27;20394;-63
2022/09/27 00:45:11;;;;;;;;;;;10.60;99.90;;;;;;5030400;28;19967;-63
2022/09/27 00:47:57;;;;;;;;;;;10.60;99.90;;;;;;5030494;28;20635;-63
2022/09/27 00:50:23;;;;;;;;;;;10.60;99.90;;;;;;4998263;28;19922;-62
2022/09/27 00:52:59;;;;;;;;;;;10.60;99.90;;;;;;5021999;28;19948;-63
2022/09/27 00:55:28;;;;;;;;;;;10.60;99.90;;;;;;5030508;28;19982;-63
2022/09/27 00:57:54;;;;;;;;;;;10.60;99.90;;;;;;5027893;28;20725;-63
2022/09/27 01:00:20;;;;;;;;;;;10.60;99.90;;;;;;5030067;28;19973;-62
2022/09/27 01:02:47;;;;;;;;;;;10.50;99.90;;;;;;5027856;28;19921;-64
2022/09/27 01:05:14;;;;;;;;;;;10.50;99.90;;;;;;5030199;28;19932;-62
2022/09/27 01:07:40;;;;;;;;;;;10.50;99.90;;;;;;5033801;28;19944;-63
2022/09/27 01:10:06;;;;;;;;;;;10.50;99.90;;;;;;5032748;28;19925;-63
2022/09/27 01:12:52;;;;;;;;;;;10.50;99.90;;;;;;5028275;28;19925;-62
2022/09/27 01:15:38;;;;;;;;;;;10.40;99.90;;;;;;5027159;28;19985;-63
2022/09/27 01:18:07;;;;;;;;;;;10.50;99.90;;;;;;5031104;28;20004;-63
2022/09/27 01:21:03;;;;;;;;;;;10.40;99.90;;;;;;5029689;28;20020;-62
2022/09/27 01:23:32;;;;;;;;;;;10.40;99.90;;;;;;5029069;28;20301;-66
2022/09/27 01:26:09;;;;;;;;;;;10.40;99.90;;;;;;5028976;28;19925;-63
2022/09/27 01:28:54;;;;;;;;;;;10.30;99.90;;;;;;5034147;28;19921;-68
2022/09/27 01:31:25;;;;;;;;;;;10.30;99.90;;;;;;5029141;28;19932;-63
2022/09/27 01:34:23;;;;;;;;;;;10.30;99.90;;;;;;5027800;28;19925;-63
2022/09/27 01:36:55;;;;;;;;;;;10.30;99.90;;;;;;5005914;28;19929;-63
2022/09/27 01:39:27;;;;;;;;;;;10.30;99.90;;;;;;5030793;28;19925;-62
2022/09/27 01:42:01;;;;;;;;;;;10.30;99.90;;;;;;5028328;28;20271;-64
2022/09/27 01:44:29;;;;;;;;;;;10.30;99.90;;;;;;5027615;28;20023;-63
2022/09/27 01:46:57;;;;;;;;;;;10.30;99.90;;;;;;5023462;28;20019;-64
2022/09/27 01:49:40;;;;;;;;;;;10.40;99.90;;;;;;5027655;28;19964;-63
2022/09/27 01:52:06;;;;;;;;;;;10.40;99.90;;;;;;5039019;28;19930;-63
2022/09/27 01:54:58;;;;;;;;;;;10.40;99.90;;;;;;5041137;28;19928;-63
2022/09/27 01:57:26;;;;;;;;;;;10.40;99.90;;;;;;5042189;28;19928;-63
2022/09/27 01:59:53;;;;;;;;;;;10.30;99.90;;;;;;5044063;28;19929;-62
2022/09/27 02:02:23;;;;;;;;;;;10.40;99.90;;;;;;5034740;28;19925;-64
2022/09/27 02:04:50;;;;;;;;;;;10.30;99.90;;;;;;5028047;28;19952;-64
2022/09/27 02:07:19;;;;;;;;;;;10.30;99.90;;;;;;5029006;28;20012;-63
2022/09/27 02:09:47;;;;;;;;;;;10.30;99.90;;;;;;5059030;28;19944;-69
2022/09/27 02:12:14;;;;;;;;;;;10.20;99.90;;;;;;5011325;28;20492;-65
2022/09/27 02:14:52;;;;;;;;;;;10.30;99.90;;;;;;5028176;28;19932;-65
2022/09/27 02:17:21;;;;;;;;;;;10.30;99.90;;;;;;5025440;28;19928;-65
2022/09/27 02:19:55;;;;;;;;;;;10.20;99.90;;;;;;5027703;28;19929;-65
2022/09/27 02:22:39;;;;;;;;;;;10.20;99.90;;;;;;5036713;28;19929;-65
2022/09/27 02:25:14;;;;;;;;;;;10.20;99.90;;;;;;5027885;28;20159;-65
2022/09/27 02:27:53;;;;;;;;;;;10.20;99.90;;;;;;5028729;28;19924;-66
2022/09/27 02:30:19;;;;;;;;;;;10.10;99.90;;;;;;5028317;28;19921;-65
2022/09/27 02:32:44;;;;;;;;;;;10.10;99.90;;;;;;5036267;28;19970;-66
2022/09/27 02:35:18;;;;;;;;;;;10.10;99.90;;;;;;5027029;28;20355;-65
2022/09/27 02:37:44;;;;;;;;;;;10.10;99.90;;;;;;5027828;28;19921;-65
2022/09/27 02:40:10;;;;;;;;;;;10.10;99.90;;;;;;5026829;28;20029;-65
2022/09/27 02:42:36;;;;;;;;;;;10.10;99.90;;;;;;5027273;28;20032;-64
2022/09/27 02:45:04;;;;;;;;;;;10.00;99.90;;;;;;5027671;28;19921;-65
2022/09/27 02:47:41;;;;;;;;;;;10.00;99.90;;;;;;5028462;28;20426;-65
2022/09/27 02:50:15;;;;;;;;;;;10.00;99.90;;;;;;5059857;28;20416;-65
2022/09/27 02:53:00;;;;;;;;;;;10.10;99.90;;;;;;5053952;28;19928;-65
2022/09/27 02:55:34;;;;;;;;;;;10.00;99.90;;;;;;5026864;28;20000;-67
2022/09/27 02:58:18;;;;;;;;;;;10.00;99.90;;;;;;5027375;28;19928;-65
2022/09/27 03:00:51;;;;;;;;;;;10.00;99.90;;;;;;5027709;28;20311;-65
2022/09/27 03:03:21;;;;;;;;;;;9.90;99.90;;;;;;5030833;28;19924;-65
2022/09/27 03:06:13;;;;;;;;;;;10.00;99.90;;;;;;5059728;28;19929;-64
2022/09/27 03:08:40;;;;;;;;;;;9.90;99.90;;;;;;5056912;27;20401;-64
2022/09/27 03:11:05;;;;;;;;;;;10.00;99.90;;;;;;5026175;28;19921;-64
2022/09/27 03:13:32;;;;;;;;;;;10.00;99.90;;;;;;5027760;28;20296;-64
2022/09/27 03:15:58;;;;;;;;;;;9.90;99.90;;;;;;5026347;28;19925;-63
2022/09/27 03:18:23;;;;;;;;;;;9.90;99.90;;;;;;5027939;28;19981;-64
2022/09/27 03:20:51;;;;;;;;;;;9.90;99.90;;;;;;5027250;28;19968;-64
2022/09/27 03:23:16;;;;;;;;;;;9.90;99.90;;;;;;5028425;28;19986;-63
2022/09/27 03:25:42;;;;;;;;;;;9.80;99.90;;;;;;5028049;28;20402;-64
2022/09/27 03:28:08;;;;;;;;;;;9.90;99.90;;;;;;5027575;28;20298;-64
2022/09/27 03:30:34;;;;;;;;;;;9.80;99.90;;;;;;5025993;28;19921;-63
2022/09/27 03:33:00;;;;;;;;;;;9.80;99.90;;;;;;5009170;28;19977;-63
2022/09/27 03:35:25;;;;;;;;;;;9.80;99.90;;;;;;5026491;28;19921;-64
2022/09/27 03:37:51;;;;;;;;;;;9.80;99.90;;;;;;5026771;28;19921;-64
2022/09/27 03:40:17;;;;;;;;;;;9.70;99.90;;;;;;5026919;28;19941;-63
2022/09/27 03:42:43;;;;;;;;;;;9.70;99.90;;;;;;5009939;28;20306;-62
2022/09/27 03:45:08;;;;;;;;;;;9.70;99.90;;;;;;5017989;28;19929;-63
2022/09/27 03:47:38;;;;;;;;;;;9.70;99.90;;;;;;5015081;28;19932;-64
2022/09/27 03:50:04;;;;;;;;;;;9.70;99.90;;;;;;5027333;28;19964;-62
2022/09/27 03:52:29;;;;;;;;;;;9.70;99.90;;;;;;5025673;28;19960;-62
2022/09/27 03:54:55;;;;;;;;;;;9.60;99.90;;;;;;5028373;28;20462;-63
2022/09/27 03:57:21;;;;;;;;;;;9.60;99.90;;;;;;5058773;28;19921;-63
2022/09/27 03:59:47;;;;;;;;;;;9.60;99.90;;;;;;4993824;28;20005;-64
2022/09/27 04:02:12;;;;;;;;;;;9.70;99.90;;;;;;5024746;28;19921;-64
2022/09/27 04:04:38;;;;;;;;;;;9.70;99.90;;;;;;5025428;28;19925;-64
2022/09/27 04:07:03;;;;;;;;;;;9.70;99.90;;;;;;5031284;28;19925;-64
2022/09/27 04:09:29;;;;;;;;;;;9.70;99.90;;;;;;5033112;28;19922;-65
2022/09/27 04:11:54;;;;;;;;;;;9.70;99.90;;;;;;5026945;28;19972;-64
2022/09/27 04:14:20;;;;;;;;;;;9.70;99.90;;;;;;5026320;28;19917;-64
2022/09/27 04:16:45;;;;;;;;;;;9.70;99.90;;;;;;5007229;28;19921;-64
2022/09/27 04:19:11;;;;;;;;;;;9.70;99.90;;;;;;5025150;28;19932;-64
2022/09/27 04:21:37;;;;;;;;;;;9.70;99.90;;;;;;5027080;28;19951;-64
2022/09/27 04:24:04;;;;;;;;;;;9.70;99.90;;;;;;5028542;28;19924;-68
2022/09/27 04:26:29;;;;;;;;;;;9.70;99.90;;;;;;5028093;28;19974;-64
2022/09/27 04:28:55;;;;;;;;;;;9.70;99.90;;;;;;5026792;28;20021;-66
2022/09/27 04:31:21;;;;;;;;;;;9.70;99.90;;;;;;5026662;28;20016;-63
2022/09/27 04:33:46;;;;;;;;;;;9.70;99.90;;;;;;5025787;28;20015;-64
2022/09/27 04:36:25;;;;;;;;;;;9.70;99.90;;;;;;5026648;28;20066;-64
2022/09/27 04:38:55;;;;;;;;;;;9.70;99.90;;;;;;5026672;28;19925;-64
2022/09/27 04:41:20;;;;;;;;;;;9.70;99.90;;;;;;5026108;28;20298;-65
2022/09/27 04:43:56;;;;;;;;;;;9.70;99.90;;;;;;5042504;28;19932;-66
2022/09/27 04:46:22;;;;;;;;;;;9.70;99.90;;;;;;5008680;28;19921;-63
2022/09/27 04:48:48;;;;;;;;;;;9.70;99.90;;;;;;5039166;28;19928;-64
2022/09/27 04:51:16;;;;;;;;;;;9.70;99.90;;;;;;5026172;28;20296;-64
2022/09/27 04:53:42;;;;;;;;;;;9.80;99.90;;;;;;5025860;28;19925;-64
2022/09/27 04:56:08;;;;;;;;;;;9.70;99.90;;;;;;5058224;27;20073;-69
2022/09/27 04:58:33;;;;;;;;;;;9.70;99.90;;;;;;5036648;28;20041;-63
2022/09/27 05:01:01;;;;;;;;;;;9.70;99.90;;;;;;5030375;28;20405;-63
2022/09/27 05:03:27;;;;;;;;;;;9.70;99.90;;;;;;5028592;28;19925;-64
2022/09/27 05:05:53;;;;;;;;;;;9.70;99.90;;;;;;5029990;28;19925;-64
2022/09/27 05:08:19;;;;;;;;;;;9.70;99.90;;;;;;5030568;28;19944;-64
2022/09/27 05:10:46;;;;;;;;;;;9.70;99.90;;;;;;5029903;28;19921;-64
2022/09/27 05:13:12;;;;;;;;;;;9.70;99.90;;;;;;5029286;28;19929;-64
2022/09/27 05:15:38;;;;;;;;;;;9.70;99.90;;;;;;5029142;28;19921;-64
2022/09/27 05:18:06;;;;;;;;;;;9.60;99.90;;;;;;5028591;28;19928;-63
2022/09/27 05:20:33;;;;;;;;;;;9.70;99.90;;;;;;5031535;28;19925;-64
2022/09/27 05:22:59;;;;;;;;;;;9.60;99.90;;;;;;5028026;28;19928;-65
2022/09/27 05:25:24;;;;;;;;;;;9.60;99.90;;;;;;5027999;28;20403;-64
2022/09/27 05:27:50;;;;;;;;;;;9.60;99.90;;;;;;5029156;28;19921;-64
2022/09/27 05:30:16;;;;;;;;;;;9.60;99.90;;;;;;5021495;28;20008;-63
2022/09/27 05:32:42;;;;;;;;;;;9.60;99.90;;;;;;5029515;28;19926;-63
2022/09/27 05:35:08;;;;;;;;;;;9.60;99.90;;;;;;5012250;28;19999;-64
2022/09/27 05:37:34;;;;;;;;;;;9.60;99.90;;;;;;5028999;28;20018;-63
2022/09/27 05:39:59;;;;;;;;;;;9.60;99.90;;;;;;5031928;28;19925;-64
2022/09/27 05:42:25;;;;;;;;;;;9.60;99.90;;;;;;5025950;28;19924;-63
2022/09/27 05:44:51;;;;;;;;;;;9.60;99.90;;;;;;5029307;28;19921;-63
2022/09/27 05:47:16;;;;;;;;;;;9.60;99.90;;;;;;5044505;28;19926;-64
2022/09/27 05:49:42;;;;;;;;;;;9.60;99.90;;;;;;5029096;28;19921;-64
2022/09/27 05:52:07;;;;;;;;;;;9.60;99.90;;;;;;5039923;28;19976;-64
2022/09/27 05:54:33;;;;;;;;;;;9.60;99.90;;;;;;5035984;28;19936;-64
2022/09/27 05:56:59;;;;;;;;;;;9.70;99.90;;;;;;5038067;28;19932;-64
2022/09/27 05:59:25;;;;;;;;;;;9.70;99.90;;;;;;5060588;28;19978;-65
2022/09/27 06:01:51;;;;;;;;;;;9.70;99.90;;;;;;5026389;28;19921;-63
2022/09/27 06:04:17;;;;;;;;;;;9.70;99.90;;;;;;5020706;28;20373;-69
2022/09/27 06:06:43;;;;;;;;;;;9.70;99.90;;;;;;5027928;28;19924;-63
2022/09/27 06:09:09;;;;;;;;;;;9.70;99.90;;;;;;5011579;28;19921;-63
2022/09/27 06:11:35;;;;;;;;;;;9.60;99.90;;;;;;5010314;28;19921;-63
2022/09/27 06:14:01;;;;;;;;;;;9.70;99.90;;;;;;5028118;28;19932;-68
2022/09/27 06:16:27;;;;;;;;;;;9.70;99.90;;;;;;5027785;28;19972;-70
2022/09/27 06:18:53;;;;;;;;;;;9.70;99.90;;;;;;5030551;28;20033;-68
2022/09/27 06:21:19;;;;;;;;;;;9.70;99.90;;;;;;5012662;28;19928;-77
2022/09/27 06:23:44;;;;;;;;;;;9.70;99.90;;;;;;5030015;28;19921;-69
2022/09/27 06:26:11;;;;;;;;;;;9.70;99.90;;;;;;5030326;28;19921;-68
2022/09/27 06:28:36;;;;;;;;;;;9.70;99.90;;;;;;5029917;28;19928;-68
2022/09/27 06:31:04;;;;;;;;;;;9.70;99.90;;;;;;5029463;28;19921;-69
2022/09/27 06:33:29;;;;;;;;;;;9.70;99.90;;;;;;5030091;28;19925;-71
2022/09/27 06:35:55;;;;;;;;;;;9.80;99.90;;;;;;5030341;28;19941;-69
2022/09/27 06:38:21;;;;;;;;;;;9.80;99.90;;;;;;5030345;28;20015;-76
2022/09/27 06:40:46;;;;;;;;;;;9.80;99.90;;;;;;5029080;28;19925;-68
2022/09/27 06:43:13;;;;;;;;;;;9.80;99.90;;;;;;5030184;28;20008;-68
2022/09/27 06:45:39;;;;;;;;;;;9.80;99.90;;;;;;5012723;28;19921;-68
2022/09/27 06:48:05;;;;;;;;;;;9.80;99.90;;;;;;5025953;28;19965;-68
2022/09/27 06:50:35;;;;;;;;;;;9.80;99.90;;;;;;5029458;28;19921;-69
2022/09/27 06:53:02;;;;;;;;;;;9.80;99.90;;;;;;5029906;28;19921;-69
2022/09/27 06:55:27;;;;;;;;;;;9.80;99.90;;;;;;5029597;28;19964;-68
2022/09/27 07:00:41;;;;;;;;;;;9.80;99.90;;;;;;5027864;28;19973;-69
2022/09/27 07:03:10;;;;;;;;;;;9.80;99.90;;;;;;5028953;28;19974;-69
2022/09/27 07:05:36;;;;;;;;;;;9.80;99.90;;;;;;5029657;28;19971;-68
2022/09/27 07:08:03;;;;;;;;;;;9.90;99.90;;;;;;5028478;28;19932;-68
2022/09/27 07:10:29;;;;;;;;;;;9.90;99.90;;;;;;5029467;28;19928;-69
2022/09/27 07:12:55;;;;;;;;;;;9.90;99.90;;;;;;5021041;28;20012;-73
2022/09/27 07:15:21;;;;;;;;;;;9.90;99.90;;;;;;5026258;28;20371;-68
2022/09/27 07:17:47;;;;;;;;;;;10.00;99.90;;;;;;5027351;28;19921;-75
2022/09/27 07:20:13;;;;;;;;;;;10.00;99.90;;;;;;5009462;28;20000;-69
2022/09/27 07:22:44;;;;;;;;;;;10.00;99.90;;;;;;5027542;28;19921;-72
2022/09/27 07:25:09;;;;;;;;;;;10.00;99.90;;;;;;5028540;28;19932;-69
2022/09/27 07:27:35;;;;;;;;;;;10.10;99.90;;;;;;5029201;28;20304;-68
2022/09/27 07:30:01;;;;;;;;;;;10.10;99.90;;;;;;5027678;28;19921;-70
2022/09/27 07:32:26;;;;;;;;;;;10.20;99.90;;;;;;5027940;28;19925;-69
2022/09/27 07:34:52;;;;;;;;;;;10.20;99.90;;;;;;5027707;28;19921;-71
2022/09/27 07:37:17;;;;;;;;;;;10.30;99.90;;;;;;5011603;28;20004;-69
2022/09/27 07:39:43;;;;;;;;;;;10.30;99.90;;;;;;5027907;28;19928;-70
2022/09/27 07:42:12;;;;;;;;;;;10.30;99.90;;;;;;5029660;28;19921;-67
2022/09/27 07:44:38;;;;;;;;;;;10.40;99.90;;;;;;5029044;28;19924;-69
2022/09/27 07:47:07;;;;;;;;;;;10.50;99.90;;;;;;5011926;28;20303;-68
2022/09/27 07:49:32;;;;;;;;;;;10.70;99.90;;;;;;5027247;28;20306;-76
2022/09/27 07:51:58;;;;;;;3.33;1.30;;;10.80;99.90;;;;;;5026032;28;19917;-76
2022/09/27 07:54:24;;;;;;;3.15;1.15;;;11.00;99.90;;;;;;5009182;28;20602;-68
2022/09/27 07:56:49;;;;;;;4.20;1.20;;;11.20;99.90;;;;;;5008995;28;20055;-70
2022/09/27 07:59:15;;;;;;;5.53;1.30;;;11.40;99.90;;;;;;5025989;28;20071;-71
2022/09/27 08:01:41;;;;;;;4.13;1.00;;;11.40;99.90;;;;;;5008330;28;20053;-71
2022/09/27 08:04:06;;;;;;;5.13;1.27;;;11.40;99.90;;;;;;5025751;28;20082;-70
2022/09/27 08:06:32;;;;;;;;;;;11.20;99.90;;;;;;5010032;28;20098;-76
2022/09/27 08:08:58;;;;;;;6.32;1.30;;;11.10;99.90;;;;;;5042209;28;19921;-69
2022/09/27 08:11:24;;;;;;;5.88;1.27;;;10.90;99.90;;;;;;5027056;28;20082;-69
2022/09/27 08:13:51;;;;;;;;;;;10.90;99.90;;;;;;5027298;28;20041;-68
2022/09/27 08:16:17;;;;;;;;;;;10.80;99.90;;;;;;5025097;28;19925;-70
2022/09/27 08:18:42;;;;;;;;;;;10.90;99.90;;;;;;5021058;28;19942;-72
2022/09/27 08:21:08;;;;;;;;;;;10.80;99.90;;;;;;5022222;28;20023;-75
2022/09/27 08:23:35;;;;;;;;;;;10.80;99.90;;;;;;5024216;28;20303;-68
2022/09/27 08:26:01;;;;;;;;;;;10.80;99.90;;;;;;5027430;28;20037;-69
2022/09/27 08:28:27;;;;;;;;;;;10.80;99.90;;;;;;5026798;28;19971;-69
2022/09/27 08:30:52;;;;;;;;;;;10.80;99.90;;;;;;5024940;28;20521;-70
2022/09/27 08:33:18;;;;;;;;;;;11.00;99.90;;;;;;5023685;28;20375;-74
2022/09/27 08:35:44;;;;;;;;;;;11.00;99.90;;;;;;5008561;28;19921;-68
2022/09/27 08:38:10;;;;;;;;;;;11.10;99.90;;;;;;5027789;28;19925;-73
2022/09/27 08:40:53;;;;;;;;;;;11.20;99.90;;;;;;5029345;28;19921;-74
2022/09/27 08:43:21;;;;;;;;;;;11.20;99.90;;;;;;5026507;28;19921;-71
2022/09/27 08:46:05;;;;;;;;;;;11.30;99.90;;;;;;5012909;28;19976;-67
2022/09/27 08:48:33;;;;;;;4.30;0.98;;;11.50;99.90;;;;;;5027896;28;20480;-69
2022/09/27 08:51:02;;;;;;;3.75;1.20;;;11.70;99.90;;;;;;5025856;28;20129;-69
2022/09/27 08:53:37;;;;;;;5.05;1.42;;;11.80;99.90;;;;;;5031326;28;20132;-70
2022/09/27 08:56:08;;;;;;;2.88;1.05;;;11.90;99.90;;;;;;5027842;28;20551;-69
2022/09/27 08:58:34;;;;;;;;;;;11.80;99.90;;;;;;5030103;28;20132;-69
2022/09/27 09:01:02;;;;;;;;;;;11.70;99.90;;;;;;5030533;28;20499;-74
2022/09/27 09:03:33;;;;;;;;;;;11.70;99.90;;;;;;5030558;28;19959;-70
2022/09/27 09:05:59;;;;;;;;;;;11.90;99.90;;;;;;5028565;28;20381;-68
2022/09/27 09:08:42;;;;;;;;;;;11.50;99.90;;;;;;5026194;28;20011;-68
2022/09/27 09:14:07;;;;;;;;;;;11.50;99.90;;;;;;5030965;28;19921;-70
2022/09/27 09:16:39;;;;;;;;;;;11.50;99.90;;;;;;5023274;28;19924;-78
2022/09/27 09:19:23;;;;;;;;;;;11.50;99.90;;;;;;5026575;28;19921;-70
2022/09/27 09:21:55;;;;;;;;;;;11.50;99.90;;;;;;5029863;28;20053;-69
2022/09/27 09:24:30;;;;;;;;;;;11.50;99.90;;;;;;5031007;28;19928;-69
2022/09/27 09:26:59;;;;;;;;;;;11.50;99.90;;;;;;5029724;28;19975;-70
2022/09/27 09:29:32;;;;;;;;;;;11.40;99.90;;;;;;5030326;28;19943;-69
2022/09/27 09:32:16;;;;;;;;;;;11.30;99.90;;;;;;5027617;28;19917;-71
2022/09/27 09:34:47;;;;;;;;;;;11.30;99.90;;;;;;5030935;28;20339;-75
2022/09/27 09:37:18;;;;;;;;;;;11.30;99.90;;;;;;5030172;28;19921;-70
2022/09/27 09:39:56;;;;;;;;;;;11.30;99.90;;;;;;5029620;28;20420;-76
2022/09/27 09:42:29;;;;;;;;;;;11.30;99.90;;;;;;5030481;28;20061;-70
2022/09/27 09:44:58;;;;;;;;;;;11.20;99.90;;;;;;5029058;28;19921;-76
2022/09/27 09:47:34;;;;;;;;;;;11.20;99.90;;;;;;5011233;28;19925;-70
2022/09/27 09:50:03;;;;;;;;;;;11.20;99.90;;;;;;5029727;28;20279;-70
2022/09/27 09:52:35;;;;;;;;;;;11.10;99.90;;;;;;5022960;28;19921;-69
2022/09/27 09:55:05;;;;;;;;;;;11.10;99.90;;;;;;5027081;28;19928;-69
2022/09/27 09:57:30;;;;;;;;;;;11.10;99.90;;;;;;5029686;28;19944;-69
2022/09/27 09:59:58;;;;;;;;;;;11.10;99.90;;;;;;5029686;28;20402;-70
2022/09/27 10:02:34;;;;;;;;;;;11.10;99.90;;;;;;5030676;28;19921;-70
2022/09/27 10:05:01;;;;;;;;;;;11.10;99.90;;;;;;5030449;28;19921;-73
2022/09/27 10:07:27;;;;;;;;;;;11.00;99.90;;;;;;5012942;28;19921;-74
2022/09/27 10:09:55;;;;;;;;;;;11.00;99.90;;;;;;5029291;28;19990;-66
2022/09/27 10:12:20;;;;;;;;;;;11.10;99.90;;;;;;5029321;28;20402;-71
2022/09/27 10:14:47;;;;;;;;;;;11.10;99.90;;;;;;5029374;28;19921;-72
2022/09/27 10:17:15;;;;;;;;;;;11.10;99.90;;;;;;5030352;28;19928;-70
2022/09/27 10:19:41;;;;;;;;;;;11.20;99.90;;;;;;5029630;28;19966;-70
2022/09/27 10:22:19;;;;;;;;;;;11.20;99.90;;;;;;5030165;28;19932;-69
2022/09/27 10:24:55;;;;;;;;;;;11.30;99.90;;;;;;5030545;28;19921;-70
2022/09/27 10:27:22;;;;;;;;;;;11.40;99.90;;;;;;5013071;28;20398;-72
2022/09/27 10:29:54;;;;;;;;;;;11.40;99.90;;;;;;5029748;28;20098;-69
2022/09/27 10:32:23;;;;;;;;;;;11.50;99.90;;;;;;5029213;28;19928;-72
2022/09/27 10:34:50;;;;;;;;;;;11.50;99.90;;;;;;5029584;28;19983;-71
2022/09/27 10:37:21;;;;;;;;;;;11.60;99.90;;;;;;5029312;28;19940;-68
2022/09/27 10:39:47;;;;;;;;;;;11.70;99.90;;;;;;5029453;28;19928;-70
2022/09/27 10:42:32;;;;;;;;;;;11.70;99.90;;;;;;5028752;28;19921;-70
2022/09/27 10:45:18;;;;;;;;;;;11.80;99.90;;;;;;5012795;28;19921;-69
2022/09/27 10:47:44;;;;;;;;;;;11.90;99.90;;;;;;5028680;28;19925;-68
2022/09/27 10:50:15;;;;;;;;;;;12.00;99.90;;;;;;5025451;28;20069;-68
2022/09/27 10:52:41;;;;;;;;;;;12.10;99.90;;;;;;5027673;28;20097;-68
2022/09/27 10:55:15;;;;;;;;;;;12.20;99.90;;;;;;5011172;28;19931;-69
2022/09/27 10:57:47;;;;;;;;;;;12.20;99.90;;;;;;5028115;28;19928;-70
2022/09/27 11:00:21;;;;;;;;;;;12.30;99.90;;;;;;5009429;28;19921;-70
2022/09/27 11:02:52;;;;;;;;;;;12.40;99.90;;;;;;5022113;28;20290;-72
2022/09/27 11:05:28;;;;;;;;;;;12.30;99.90;;;;;;5022798;28;19921;-72
2022/09/27 11:07:55;;;;;;;;;;;12.40;99.90;;;;;;5028813;28;19981;-75
2022/09/27 11:10:31;;;;;;;;;;;12.20;99.90;;;;;;5028862;28;20017;-69
2022/09/27 11:13:16;;;;;;;;;;;12.10;99.90;;;;;;5027356;28;19939;-79
2022/09/27 11:16:00;;;;;;;;;;;12.00;99.90;;;;;;5029088;28;19921;-70
2022/09/27 11:18:38;;;;;;;;;;;11.90;99.90;;;;;;5028443;28;20367;-67
2022/09/27 11:21:09;;;;;;;;;;;11.80;99.90;;;;;;5011017;28;19943;-66
2022/09/27 11:23:44;;;;;;;;;;;11.70;99.90;;;;;;5027851;28;20003;-68
2022/09/27 11:26:31;;;;;;;;;;;11.60;99.90;;;;;;5011962;28;19928;-69
2022/09/27 11:29:01;;;;;;;;;;;11.60;99.90;;;;;;5029199;28;19925;-78
2022/09/27 11:31:46;;;;;;;;;;;11.60;99.90;;;;;;5029462;28;20028;-69
2022/09/27 11:34:27;;;;;;;;;;;11.60;99.90;;;;;;5028347;28;19925;-68
2022/09/27 11:36:58;;;;;;;;;;;11.60;99.90;;;;;;5025290;28;20070;-66
2022/09/27 11:39:42;;;;;;;;;;;11.60;99.90;;;;;;5027140;28;19964;-69
2022/09/27 11:42:26;;;;;;;;;;;11.60;99.90;;;;;;5029388;28;20307;-68
2022/09/27 11:45:14;;;;;;;;;;;11.70;99.90;;;;;;5028250;28;19943;-68
2022/09/27 11:47:57;;;;;;;;;;;11.70;99.90;;;;;;5011260;28;19921;-68
2022/09/27 11:50:41;;;;;;;;;;;11.70;99.90;;;;;;5028812;28;20020;-67
2022/09/27 11:53:23;;;;;;;;;;;11.90;99.90;;;;;;5027552;28;20375;-69
2022/09/27 11:55:53;;;;;;;;;;;12.00;99.90;;;;;;5028482;28;19921;-71
2022/09/27 11:58:31;;;;;;;;;;;12.10;99.90;;;;;;5029314;28;20355;-69
2022/09/27 12:01:02;;;;;;;;;;;12.00;99.90;;;;;;5028457;28;19925;-72
2022/09/27 12:03:27;;;;;;;;;;;11.90;99.90;;;;;;5028948;28;19921;-69
2022/09/27 12:06:01;;;;;;;;;;;11.80;99.90;;;;;;5028130;28;19921;-69
2022/09/27 12:08:33;;;;;;;;;;;11.80;99.90;;;;;;5030406;28;19925;-71
2022/09/27 12:11:03;;;;;;;;;;;11.70;99.90;;;;;;5048358;28;19986;-69
2022/09/27 12:13:35;;;;;;;;;;;11.80;99.90;;;;;;5032665;28;19921;-68
2022/09/27 12:16:01;;;;;;;;;;;11.80;99.90;;;;;;5032771;28;19921;-72
2022/09/27 12:18:32;;;;;;;;;;;12.00;99.90;;;;;;5031484;28;20012;-68
2022/09/27 12:21:01;;;;;;;;;;;12.00;99.90;;;;;;5032769;28;20343;-70
2022/09/27 12:23:37;;;;;;;;;;;12.10;99.90;;;;;;5014763;28;19932;-70
2022/09/27 12:26:29;;;;;;;;;;;12.20;99.90;;;;;;5031091;28;19970;-68
2022/09/27 12:28:58;;;;;;;;;;;12.20;99.90;;;;;;5028723;28;19921;-70
2022/09/27 12:31:33;;;;;;;;;;;12.20;99.90;;;;;;5031230;28;19921;-71
2022/09/27 12:34:03;;;;;;;;;;;12.20;99.90;;;;;;5031080;28;19962;-73
2022/09/27 12:36:36;;;;;;;;;;;12.10;99.90;;;;;;5031411;28;19917;-72
2022/09/27 12:39:18;;;;;;;;;;;12.10;99.90;;;;;;5031227;28;20291;-74
2022/09/27 12:41:47;;;;;;;;;;;12.10;99.90;;;;;;5032449;28;19964;-72
2022/09/27 12:44:12;;;;;;;;;;;12.10;99.90;;;;;;5032037;28;19921;-72
2022/09/27 12:47:13;;;;;;;;;;;12.10;99.90;;;;;;5031334;28;19950;-72
2022/09/27 12:49:39;;;;;;;;;;;12.10;99.90;;;;;;4955125;28;20038;-73
2022/09/27 12:52:08;;;;;;;;;;;12.10;99.90;;;;;;5014453;28;20387;-72
2022/09/27 12:54:46;;;;;;;;;;;12.20;99.90;;;;;;5031388;28;20321;-73
2022/09/27 12:57:17;;;;;;;;;;;12.20;99.90;;;;;;5032254;28;19928;-71
2022/09/27 12:59:50;;;;;;;;;;;12.30;99.90;;;;;;5014708;28;19921;-72
2022/09/27 13:02:51;;;;;;;;;;;12.40;99.90;;;;;;5031755;28;19943;-73
2022/09/27 13:05:35;;;;;;;;;;;12.40;99.90;;;;;;4970834;28;19929;-72
2022/09/27 13:08:00;;;;;;;;;;;12.50;99.90;;;;;;5024300;28;20016;-73
2022/09/27 13:10:35;;;;;;;;;;;12.60;99.90;;;;;;5014349;28;20012;-71
2022/09/27 13:13:03;;;;;;;;;;;12.60;99.90;;;;;;5030616;28;19969;-69
2022/09/27 13:15:31;;;;;;;;;;;12.70;99.90;;;;;;5013918;28;19921;-70
2022/09/27 13:17:58;;;;;;;;;;;12.80;99.90;;;;;;5031787;28;19925;-70
2022/09/27 13:20:30;;;;;;;;;;;12.90;99.90;;;;;;5029779;28;20295;-68
2022/09/27 13:22:56;;;;;;;;;;;12.90;99.90;;;;;;5031493;28;19929;-69
2022/09/27 13:25:41;;;;;;;;;;;12.90;99.90;;;;;;5029988;28;19928;-70
2022/09/27 13:28:27;;;;;;;;;;;12.90;99.90;;;;;;5014319;28;20004;-68
2022/09/27 13:30:53;;;;;;;;;;;13.00;99.90;;;;;;5000587;28;19976;-69
2022/09/27 13:33:19;;;;;;;;;;;12.90;99.90;;;;;;5030156;28;19928;-69
2022/09/27 13:36:03;;;;;;;;;;;12.80;99.90;;;;;;5031564;28;19924;-69
2022/09/27 13:38:29;;;;;;;;;;;12.70;99.90;;;;;;5030972;28;19925;-68
2022/09/27 13:41:11;;;;;;;;;;;12.50;99.90;;;;;;5030603;28;19921;-69
2022/09/27 13:43:47;;;;;;;;;;;12.40;99.90;;;;;;5031284;28;19932;-70
2022/09/27 13:46:18;;;;;;;;;;;12.20;99.90;;;;;;5031659;28;19916;-69
2022/09/27 13:48:49;;;;;;;;;;;12.10;99.90;;;;;;5031332;28;19921;-68
2022/09/27 13:51:30;;;;;;;;;;;12.00;99.90;;;;;;5031434;28;19974;-73
2022/09/27 13:54:01;;;;;;;;;;;12.00;99.90;;;;;;5031522;28;19944;-69
2022/09/27 13:56:45;;;;;;;;;;;11.90;99.90;;;;;;5030178;28;20288;-69
2022/09/27 13:59:16;;;;;;;;;;;11.90;99.90;;;;;;5030043;28;20332;-69
2022/09/27 14:01:45;;;;;;;;;;;11.80;99.90;;;;;;5030921;28;19921;-70
2022/09/27 14:04:19;;;;;;;;;;;11.70;99.90;;;;;;5031219;28;19925;-70
2022/09/27 14:06:48;;;;;;;;;;;11.70;99.90;;;;;;5031227;28;19943;-69
2022/09/27 14:09:19;;;;;;;;;;;11.70;99.90;;;;;;5031154;28;19921;-70
2022/09/27 14:11:48;;;;;;;;;;;11.70;99.90;;;;;;5030060;28;19973;-71
2022/09/27 14:14:15;;;;;;;;;;;11.70;99.90;;;;;;5013288;28;20439;-68
2022/09/27 14:16:45;;;;;;;;;;;11.70;99.90;;;;;;5013431;28;19982;-69
2022/09/27 14:19:24;;;;;;;;;;;11.80;99.90;;;;;;5031086;28;20359;-69
2022/09/27 14:21:50;;;;;;;;;;;11.80;99.90;;;;;;5030046;28;19921;-73
2022/09/27 14:24:19;;;;;;;;;;;11.80;99.90;;;;;;5030842;28;20402;-69
2022/09/27 14:26:44;;;;;;;;;;;11.80;99.90;;;;;;5030722;28;19921;-69
2022/09/27 14:29:20;;;;;;;;;;;11.80;99.90;;;;;;5029922;28;20019;-71
2022/09/27 14:32:01;;;;;;;;;;;11.80;99.90;;;;;;5029559;28;19921;-69
2022/09/27 14:34:27;;;;;;;;;;;11.70;99.90;;;;;;5030803;28;19932;-70
2022/09/27 14:39:37;;;;;;;;;;;11.60;99.90;;;;;;5030594;28;20061;-69
2022/09/27 14:42:05;;;;;;;;;;;11.60;99.90;;;;;;5028904;28;19925;-69